Aspinwall, PA

11:01 AM EDT on September 17, 2014 (GMT -0400)
O'Hara Township | Change Station
CLOSE
Current Station
Personal Weather Station
Location: Pittsburgh, PA
Elevation: 732 ft
Nearby Weather Stations

Elev 732 ft 40.49 °N, 79.89 °W | Updated 6 minutes ago

Partly Cloudy
Partly Cloudy
62.2 °F
Feels Like 62.2 °F
N
0.0
Wind Variable Wind from NNE

Today
High -- | Low -- °F
--% Chance of Precip.
Yesterday
High -- | Low -- °F
Precip. -- in
7:02 AM 7:25 PM
Waning Crescent, 35% visible
Pressure 30.07 in
Visibility 8.0 miles
Clouds Few 4900 ft
Mostly Cloudy 11000 ft
Dew Point 55 °F
Humidity 77%
Rainfall 0.00 in
Snow Depth Not available.
UV 3 out of 12
Pollen 3.60 out of 12
Ozone Good
PM2.5 Moderate
Flu Activity Not available.
METAR KAGC 171453Z 14004KT 8SM FEW049 BKN110 16/10 A3006 RMK AO2 SLP183 T01610100 58001

More Conditions Fewer Conditions

Pressure 30.07 in
Visibility 8.0 miles
Clouds Few 4900 ft
Mostly Cloudy 11000 ft
Dew Point 55 °F
Humidity 77%
Rainfall 0.00 in
Snow Depth Not available.
UV 3 out of 12
Pollen 3.60 out of 12
Ozone Good
PM2.5 Moderate
Flu Activity Not available.
METAR KAGC 171453Z 14004KT 8SM FEW049 BKN110 16/10 A3006 RMK AO2 SLP183 T01610100 58001

More Conditions Fewer Conditions

10-Day Weather Forecast

Almanac

Astronomy

Sep. 17, 2014 Rise Set
Actual Time 7:02 AM EDT 7:25 PM EDT
Civil Twilight 6:34 AM EDT 7:52 PM EDT
Nautical Twilight 6:02 AM EDT 8:24 PM EDT
Astronomical Twilight 5:29 AM EDT 8:57 PM EDT
Moon 12:59 AM EDT 3:34 PM EDT
Length of Visible Light 13h 17m
Length of Day
12h 22m
Tomorrow will be 2m 38s shorter.
Waning Crescent, 35% of the Moon is Illuminated
Today
Waning Crescent
Sep 24
New
Oct 1
First Quarter
Oct 8
Full
Oct 15
Last Quarter

Today's Extremes

State Highs State Lows

Community

WunderPhotos

Upload Photos

1,754,064 photos uploaded!

WunderBlogs® & News

Nearby

Air Quality

  Air Quality AQ Index Pollutant
Yesterday Moderate
PM2.5
Yesterday Good
OZONE
Current Moderate
PM2.5
Current Good
OZONE
Wednesday Good
PM2.5
Thursday Good
PM2.5

Snow Depth

Station Depth Elevation
No new snow has been reported.

Earthquake Activity

City Distance Mag. Time & Date
No recent earthquake activity has been reported nearby.
Minimum magnitude displayed is 2.5.

Coastal Water Temperatures

Place Temperature
No Stations Reporting

Nearby Weather Stations